createdAt,value
2022-12-04T00:02:18.708Z,6.37
2022-12-04T00:04:45.337Z,6.34
2022-12-04T00:07:11.976Z,6.47
2022-12-04T00:09:38.498Z,6.57
2022-12-04T00:12:05.173Z,6.65
2022-12-04T00:14:31.740Z,6.68
2022-12-04T00:16:58.760Z,6.47
2022-12-04T00:19:25.381Z,6.53
2022-12-04T00:21:51.984Z,6.54
2022-12-04T00:24:18.551Z,6.55
2022-12-04T00:26:45.101Z,6.45
2022-12-04T00:29:11.726Z,6.48
2022-12-04T00:31:39.990Z,6.54
2022-12-04T00:34:08.243Z,6.46
2022-12-04T00:36:35.007Z,6.36
2022-12-04T00:39:02.012Z,6.22
2022-12-04T00:41:31.311Z,6.29
2022-12-04T00:43:58.106Z,6.29
2022-12-04T00:46:24.756Z,6.33
2022-12-04T00:48:51.964Z,6.40
2022-12-04T00:51:21.737Z,6.39
2022-12-04T00:53:48.814Z,6.30
2022-12-04T00:56:27.055Z,6.35
2022-12-04T00:58:56.531Z,6.40
2022-12-04T01:01:24.195Z,6.35
2022-12-04T01:03:52.251Z,6.18
2022-12-04T01:06:23.519Z,5.99
2022-12-04T01:08:51.784Z,5.91
2022-12-04T01:11:19.610Z,6.07
2022-12-04T01:13:46.883Z,6.10
2022-12-04T01:16:22.865Z,6.00
2022-12-04T01:18:50.493Z,5.95
2022-12-04T01:21:18.362Z,5.88
2022-12-04T01:23:45.158Z,5.79
2022-12-04T01:26:12.460Z,5.75
2022-12-04T01:28:39.560Z,5.77
2022-12-04T01:31:08.604Z,5.70
2022-12-04T01:33:36.514Z,5.61
2022-12-04T01:36:06.134Z,5.42
2022-12-04T01:38:34.467Z,5.38
2022-12-04T01:41:00.981Z,5.55
2022-12-04T01:43:30.938Z,5.45
2022-12-04T01:45:59.310Z,5.54
2022-12-04T01:48:38.135Z,5.59
2022-12-04T01:51:10.616Z,5.56
2022-12-04T01:53:40.052Z,5.34
2022-12-04T01:56:07.308Z,5.47
2022-12-04T01:58:40.929Z,5.82
2022-12-04T02:01:09.562Z,5.71
2022-12-04T02:03:39.128Z,5.53
2022-12-04T02:06:07.092Z,5.36
2022-12-04T02:08:35.137Z,5.35
2022-12-04T02:11:13.748Z,5.46
2022-12-04T02:13:49.141Z,5.54
2022-12-04T02:16:36.863Z,5.44
2022-12-04T02:19:13.451Z,5.28
2022-12-04T02:21:46.083Z,5.35
2022-12-04T02:24:18.456Z,5.33
2022-12-04T02:26:53.162Z,5.18
2022-12-04T02:29:19.539Z,5.23
2022-12-04T02:31:53.393Z,5.31
2022-12-04T02:34:34.914Z,5.44
2022-12-04T02:37:08.607Z,5.65
2022-12-04T02:39:41.440Z,5.41
2022-12-04T02:42:15.100Z,5.37
2022-12-04T02:44:54.582Z,5.42
2022-12-04T02:47:23.893Z,5.44
2022-12-04T02:49:55.774Z,5.30
2022-12-04T02:52:28.358Z,5.13
2022-12-04T02:55:01.085Z,5.20
2022-12-04T02:57:35.536Z,5.12
2022-12-04T03:00:08.816Z,5.04
2022-12-04T03:02:43.815Z,5.21
2022-12-04T03:05:15.719Z,5.45
2022-12-04T03:07:59.226Z,5.56
2022-12-04T03:10:35.089Z,5.30
2022-12-04T03:13:09.688Z,4.84
2022-12-04T03:15:54.072Z,4.93
2022-12-04T03:18:38.644Z,5.04
2022-12-04T03:21:11.249Z,5.05
2022-12-04T03:23:44.553Z,4.88
2022-12-04T03:26:22.779Z,4.87
2022-12-04T03:28:58.493Z,4.75
2022-12-04T03:31:50.650Z,4.98
2022-12-04T03:34:27.418Z,5.01
2022-12-04T03:36:58.982Z,4.97
2022-12-04T03:39:44.806Z,5.01
2022-12-04T03:42:27.524Z,5.05
2022-12-04T03:45:17.839Z,5.07
2022-12-04T03:47:57.200Z,5.24
2022-12-04T03:50:39.800Z,5.59
2022-12-04T03:53:23.145Z,5.49
2022-12-04T03:55:58.595Z,5.44
2022-12-04T03:58:34.753Z,5.33
2022-12-04T04:01:05.243Z,5.27
2022-12-04T04:03:35.744Z,5.13
2022-12-04T04:06:08.844Z,4.95
2022-12-04T04:08:38.876Z,5.03
2022-12-04T04:11:11.797Z,4.81
2022-12-04T04:14:06.557Z,4.74
2022-12-04T04:16:56.536Z,4.77
2022-12-04T04:19:47.039Z,4.84
2022-12-04T04:22:35.468Z,4.73
2022-12-04T04:25:08.119Z,4.58
2022-12-04T04:27:34.842Z,4.32
2022-12-04T04:30:01.872Z,4.37
2022-12-04T04:32:46.148Z,4.43
2022-12-04T04:35:19.536Z,4.45
2022-12-04T04:38:07.483Z,4.46
2022-12-04T04:40:36.662Z,4.42
2022-12-04T04:43:25.193Z,4.28
2022-12-04T04:45:58.051Z,4.30
2022-12-04T04:48:38.298Z,4.24
2022-12-04T04:51:05.853Z,4.25
2022-12-04T04:53:39.445Z,4.24
2022-12-04T04:56:06.981Z,4.06
2022-12-04T04:58:34.007Z,4.05
2022-12-04T05:01:07.421Z,3.95
2022-12-04T05:03:35.121Z,3.79
2022-12-04T05:06:02.000Z,4.03
2022-12-04T05:08:28.757Z,4.30
2022-12-04T05:10:55.363Z,4.34
2022-12-04T05:13:23.041Z,4.33
2022-12-04T05:15:57.625Z,4.24
2022-12-04T05:18:24.286Z,4.16
2022-12-04T05:20:50.810Z,4.05
2022-12-04T05:23:17.550Z,3.98
2022-12-04T05:25:45.591Z,3.82
2022-12-04T05:28:12.087Z,3.77
2022-12-04T05:30:38.576Z,3.79
2022-12-04T05:33:05.302Z,3.85
2022-12-04T05:35:31.997Z,3.88
2022-12-04T05:37:58.659Z,3.95
2022-12-04T05:40:25.196Z,3.94
2022-12-04T05:42:51.712Z,4.01
2022-12-04T05:45:18.348Z,4.01
2022-12-04T05:47:45.085Z,4.04
2022-12-04T05:50:13.105Z,4.19
2022-12-04T05:52:39.598Z,4.19
2022-12-04T05:55:06.422Z,4.27
2022-12-04T05:57:32.892Z,4.25
2022-12-04T05:59:59.381Z,4.17
2022-12-04T06:02:25.976Z,4.29
2022-12-04T06:04:52.647Z,4.29
2022-12-04T06:07:19.549Z,4.40
2022-12-04T06:09:46.144Z,4.43
2022-12-04T06:12:12.704Z,4.30
2022-12-04T06:14:39.928Z,4.23
2022-12-04T06:17:07.019Z,4.23
2022-12-04T06:19:33.618Z,4.16
2022-12-04T06:22:00.404Z,4.14
2022-12-04T06:24:27.017Z,4.12
2022-12-04T06:29:46.718Z,4.01
2022-12-04T06:32:19.517Z,3.92
2022-12-04T06:34:52.729Z,3.91
2022-12-04T06:37:20.758Z,3.83
2022-12-04T06:39:47.327Z,3.91
2022-12-04T06:42:13.897Z,3.97
2022-12-04T06:44:40.409Z,3.97
2022-12-04T06:47:06.904Z,4.06
2022-12-04T06:49:33.732Z,4.08
2022-12-04T06:52:00.365Z,4.16
2022-12-04T06:54:26.880Z,4.14
2022-12-04T06:56:53.402Z,4.08
2022-12-04T06:59:19.887Z,4.09
2022-12-04T07:01:46.389Z,4.07
2022-12-04T07:04:13.044Z,4.06
2022-12-04T07:06:40.467Z,4.09
2022-12-04T07:09:13.312Z,4.06
2022-12-04T07:11:40.651Z,3.81
2022-12-04T07:14:07.325Z,3.75
2022-12-04T07:16:40.338Z,3.91
2022-12-04T07:19:09.171Z,3.94
2022-12-04T07:21:35.651Z,3.98
2022-12-04T07:24:02.531Z,4.03
2022-12-04T07:26:30.613Z,4.24
2022-12-04T07:28:58.586Z,4.37
2022-12-04T07:31:26.769Z,4.29
2022-12-04T07:33:54.545Z,4.14
2022-12-04T07:36:23.794Z,4.01
2022-12-04T07:38:51.121Z,4.09
2022-12-04T07:41:19.168Z,3.95
2022-12-04T07:43:46.326Z,4.03
2022-12-04T07:46:16.288Z,4.00
2022-12-04T07:48:43.454Z,3.77
2022-12-04T07:51:19.743Z,3.88
2022-12-04T07:53:46.981Z,3.90
2022-12-04T07:56:15.179Z,3.94
2022-12-04T07:58:42.230Z,4.00
2022-12-04T08:01:21.491Z,3.83
2022-12-04T08:03:50.080Z,3.92
2022-12-04T08:06:18.557Z,4.12
2022-12-04T08:08:45.768Z,4.21
2022-12-04T08:11:14.612Z,4.20
2022-12-04T08:13:41.148Z,4.26
2022-12-04T08:16:10.165Z,4.18
2022-12-04T08:18:36.984Z,4.27
2022-12-04T08:21:09.666Z,4.31
2022-12-04T08:23:37.278Z,4.20
2022-12-04T08:26:04.489Z,4.39
2022-12-04T08:28:31.840Z,4.55
2022-12-04T08:31:12.974Z,4.58
2022-12-04T08:33:41.020Z,4.73
2022-12-04T08:36:09.201Z,4.73
2022-12-04T08:38:36.260Z,4.83
2022-12-04T08:41:04.405Z,4.67
2022-12-04T08:43:31.178Z,4.60
2022-12-04T08:46:06.324Z,4.51
2022-12-04T08:48:33.636Z,4.80
2022-12-04T08:51:01.676Z,4.99
2022-12-04T08:53:28.284Z,4.98
2022-12-04T08:55:54.753Z,5.13
2022-12-04T08:58:22.402Z,5.02
2022-12-04T09:00:49.393Z,5.11
2022-12-04T09:03:19.179Z,5.10
2022-12-04T09:05:46.344Z,5.35
2022-12-04T09:08:14.635Z,5.53
2022-12-04T09:10:42.248Z,5.66
2022-12-04T09:13:09.039Z,5.66
2022-12-04T09:15:39.276Z,5.24
2022-12-04T09:18:06.348Z,5.38
2022-12-04T09:20:33.148Z,5.12
2022-12-04T09:23:04.472Z,4.81
2022-12-04T09:25:34.574Z,5.28
2022-12-04T09:28:01.086Z,5.42
2022-12-04T09:30:27.573Z,5.39
2022-12-04T09:32:54.611Z,5.51
2022-12-04T09:35:21.112Z,5.47
2022-12-04T09:37:47.599Z,5.39
2022-12-04T09:41:00.782Z,5.45
2022-12-04T09:43:49.535Z,5.40
2022-12-04T09:46:30.108Z,5.40
2022-12-04T09:48:59.562Z,5.46
2022-12-04T09:51:26.713Z,5.55
2022-12-04T09:54:01.176Z,5.44
2022-12-04T09:56:29.977Z,5.33
2022-12-04T09:58:59.201Z,5.31
2022-12-04T10:01:59.892Z,5.24
2022-12-04T10:04:26.974Z,5.05
2022-12-04T10:07:16.644Z,5.38
2022-12-04T10:09:58.193Z,5.47
2022-12-04T10:12:36.350Z,5.27
2022-12-04T10:15:40.487Z,5.74
2022-12-04T10:18:43.462Z,5.89
2022-12-04T10:21:32.994Z,5.94
2022-12-04T10:24:18.022Z,5.94
2022-12-04T10:26:45.807Z,6.07
2022-12-04T10:29:25.860Z,6.30
2022-12-04T10:31:55.654Z,6.42
2022-12-04T10:34:31.792Z,6.13
2022-12-04T10:37:03.520Z,6.14
2022-12-04T10:39:43.937Z,6.19
2022-12-04T10:42:36.140Z,6.42
2022-12-04T10:45:05.316Z,6.42
2022-12-04T10:47:32.723Z,6.20
2022-12-04T10:50:03.223Z,6.34
2022-12-04T10:52:29.766Z,6.38
2022-12-04T10:55:00.637Z,5.95
2022-12-04T10:57:40.274Z,5.93
2022-12-04T11:00:30.345Z,5.85
2022-12-04T11:03:01.049Z,5.65
2022-12-04T11:05:30.416Z,5.85
2022-12-04T11:07:59.059Z,5.98
2022-12-04T11:10:32.023Z,6.08
2022-12-04T11:13:06.363Z,5.80
2022-12-04T11:15:42.468Z,5.83
2022-12-04T11:18:15.868Z,5.88
2022-12-04T11:20:50.812Z,6.01
2022-12-04T11:23:18.196Z,6.15
2022-12-04T11:25:51.051Z,6.20
2022-12-04T11:28:41.335Z,6.25
2022-12-04T11:31:09.411Z,6.09
2022-12-04T11:33:50.030Z,6.19
2022-12-04T11:36:22.479Z,6.47
2022-12-04T11:38:51.229Z,6.59
2022-12-04T11:41:29.758Z,6.44
2022-12-04T11:44:00.357Z,6.47
2022-12-04T11:46:31.237Z,6.55
2022-12-04T11:48:58.105Z,6.56
2022-12-04T11:51:27.537Z,6.38
2022-12-04T11:54:43.568Z,6.48
2022-12-04T11:57:28.358Z,6.83
2022-12-04T12:00:20.888Z,6.70
2022-12-04T12:03:09.286Z,6.48
2022-12-04T12:05:53.692Z,6.65
2022-12-04T12:08:20.147Z,6.59
2022-12-04T12:10:49.581Z,6.68
2022-12-04T12:13:22.161Z,6.72
2022-12-04T12:16:03.972Z,6.67
2022-12-04T12:19:00.838Z,6.67
2022-12-04T12:22:06.991Z,6.80
2022-12-04T12:24:58.374Z,6.95
2022-12-04T12:27:44.867Z,6.90
2022-12-04T12:30:24.370Z,6.95
2022-12-04T12:33:20.057Z,6.88
2022-12-04T12:36:08.622Z,7.26
2022-12-04T12:38:41.548Z,7.29
2022-12-04T12:41:16.241Z,7.34
2022-12-04T12:43:45.156Z,7.31
2022-12-04T12:46:14.762Z,7.41
2022-12-04T12:49:01.086Z,7.34
2022-12-04T12:51:39.781Z,7.47
2022-12-04T12:54:28.456Z,7.59
2022-12-04T12:57:02.784Z,7.50
2022-12-04T12:59:30.124Z,7.68
2022-12-04T13:02:06.022Z,7.75
2022-12-04T13:04:40.548Z,7.41
2022-12-04T13:07:19.028Z,7.33
2022-12-04T13:10:09.521Z,7.55
2022-12-04T13:12:51.385Z,7.57
2022-12-04T13:15:21.713Z,7.67
2022-12-04T13:17:51.320Z,7.81
2022-12-04T13:20:30.646Z,7.55
2022-12-04T13:23:39.085Z,7.72
2022-12-04T13:26:14.488Z,7.96
2022-12-04T13:29:09.315Z,8.07
2022-12-04T13:31:55.133Z,8.04
2022-12-04T13:34:24.699Z,7.92
2022-12-04T13:37:16.605Z,7.95
2022-12-04T13:39:55.385Z,7.88
2022-12-04T13:42:25.735Z,7.77
2022-12-04T13:45:02.700Z,7.62
2022-12-04T13:47:32.798Z,7.43
2022-12-04T13:50:28.042Z,7.53
2022-12-04T13:52:55.226Z,7.52
2022-12-04T13:55:39.387Z,7.54
2022-12-04T13:58:27.568Z,7.62
2022-12-04T14:01:13.622Z,7.40
2022-12-04T14:03:49.727Z,7.36
2022-12-04T14:06:34.075Z,7.40
2022-12-04T14:09:04.590Z,7.48
2022-12-04T14:11:45.154Z,7.48
2022-12-04T14:14:37.980Z,7.50
2022-12-04T14:17:05.195Z,7.50
2022-12-04T14:19:38.707Z,7.43
2022-12-04T14:22:05.219Z,7.50
2022-12-04T14:24:36.448Z,7.50
2022-12-04T14:27:30.520Z,7.53
2022-12-04T14:29:58.668Z,7.61
2022-12-04T14:32:30.739Z,7.53
2022-12-04T14:34:58.200Z,7.55
2022-12-04T14:37:36.352Z,7.43
2022-12-04T14:40:07.017Z,7.49
2022-12-04T14:42:36.629Z,7.32
2022-12-04T14:45:17.292Z,7.31
2022-12-04T14:48:16.975Z,7.37
2022-12-04T14:50:55.575Z,7.40
2022-12-04T14:53:35.253Z,7.50
2022-12-04T14:56:10.472Z,7.56
2022-12-04T14:58:39.665Z,7.49
2022-12-04T15:01:28.350Z,7.49
2022-12-04T15:03:59.066Z,7.52
2022-12-04T15:06:28.591Z,7.48
2022-12-04T15:09:19.452Z,7.52
2022-12-04T15:12:13.200Z,7.54
2022-12-04T15:14:44.839Z,7.46
2022-12-04T15:17:12.303Z,7.43
2022-12-04T15:19:40.030Z,7.47
2022-12-04T15:22:28.960Z,7.45
2022-12-04T15:24:56.543Z,7.45
2022-12-04T15:27:31.938Z,7.38
2022-12-04T15:30:00.497Z,7.34
2022-12-04T15:32:28.823Z,7.26
2022-12-04T15:35:03.246Z,7.23
2022-12-04T15:37:31.489Z,7.20
2022-12-04T15:39:59.160Z,7.16
2022-12-04T15:42:28.608Z,7.24
2022-12-04T15:45:01.081Z,7.23
2022-12-04T15:47:38.410Z,7.27
2022-12-04T15:50:15.088Z,7.17
2022-12-04T15:52:54.155Z,7.09
2022-12-04T15:55:23.141Z,7.12
2022-12-04T15:57:56.168Z,7.16
2022-12-04T16:00:28.129Z,7.07
2022-12-04T16:02:55.046Z,6.99
2022-12-04T16:05:21.502Z,6.94
2022-12-04T16:07:58.149Z,6.98
2022-12-04T16:10:31.427Z,6.92
2022-12-04T16:13:00.645Z,6.87
2022-12-04T16:15:42.700Z,6.78
2022-12-04T16:18:13.474Z,6.68
2022-12-04T16:20:40.946Z,6.60
2022-12-04T16:23:07.445Z,6.61
2022-12-04T16:25:33.929Z,6.67
2022-12-04T16:28:01.522Z,6.61
2022-12-04T16:30:31.764Z,6.55
2022-12-04T16:32:58.304Z,6.58
2022-12-04T16:35:24.878Z,6.51
2022-12-04T16:37:51.667Z,6.49
2022-12-04T16:40:18.277Z,6.45
2022-12-04T16:42:44.865Z,6.42
2022-12-04T16:45:33.043Z,6.38
2022-12-04T16:47:59.638Z,6.40
2022-12-04T16:50:27.312Z,6.35
2022-12-04T16:52:54.399Z,6.34
2022-12-04T16:55:32.574Z,6.29
2022-12-04T16:57:59.428Z,6.26
2022-12-04T17:00:26.054Z,6.23
2022-12-04T17:02:53.363Z,6.22
2022-12-04T17:05:23.351Z,6.16
2022-12-04T17:07:50.144Z,6.11
2022-12-04T17:10:22.006Z,6.09
2022-12-04T17:12:53.443Z,6.06
2022-12-04T17:15:20.048Z,6.04
2022-12-04T17:17:46.514Z,6.01
2022-12-04T17:20:16.127Z,5.96
2022-12-04T17:22:42.876Z,5.89
2022-12-04T17:25:11.117Z,5.84
2022-12-04T17:27:38.012Z,5.82
2022-12-04T17:30:06.092Z,5.80
2022-12-04T17:32:34.820Z,5.77
2022-12-04T17:35:02.340Z,5.83
2022-12-04T17:37:28.829Z,5.80
2022-12-04T17:39:55.355Z,5.77
2022-12-04T17:42:22.057Z,5.78
2022-12-04T17:44:48.844Z,5.77
2022-12-04T17:47:15.730Z,5.76
2022-12-04T17:49:42.633Z,5.72
2022-12-04T17:52:09.189Z,5.69
2022-12-04T17:54:36.015Z,5.69
2022-12-04T17:57:02.787Z,5.70
2022-12-04T17:59:29.331Z,5.77
2022-12-04T18:01:56.356Z,5.72
2022-12-04T18:04:22.980Z,5.69
2022-12-04T18:06:49.460Z,5.68
2022-12-04T18:09:17.224Z,5.64
2022-12-04T18:11:50.831Z,5.65
2022-12-04T18:14:22.079Z,5.59
2022-12-04T18:16:53.128Z,5.55
2022-12-04T18:19:21.819Z,5.54
2022-12-04T18:21:48.469Z,5.53
2022-12-04T18:24:15.794Z,5.50
2022-12-04T18:26:45.257Z,5.45
2022-12-04T18:29:20.151Z,5.47
2022-12-04T18:31:47.325Z,5.43
2022-12-04T18:34:14.515Z,5.41
2022-12-04T18:36:42.777Z,5.40
2022-12-04T18:39:13.315Z,5.37
2022-12-04T18:41:40.125Z,5.42
2022-12-04T18:44:06.893Z,5.41
2022-12-04T18:46:33.540Z,5.41
2022-12-04T18:49:01.032Z,5.35
2022-12-04T18:51:35.386Z,5.31
2022-12-04T18:54:05.550Z,5.29
2022-12-04T18:56:33.733Z,5.28
2022-12-04T18:59:03.237Z,5.23
2022-12-04T19:01:31.518Z,5.20
2022-12-04T19:04:02.502Z,5.19
2022-12-04T19:06:41.334Z,5.17
2022-12-04T19:09:11.659Z,5.14
2022-12-04T19:11:39.223Z,5.12
2022-12-04T19:14:16.184Z,5.10
2022-12-04T19:16:47.799Z,5.05
2022-12-04T19:19:17.869Z,5.02
2022-12-04T19:21:44.555Z,4.99
2022-12-04T19:24:11.800Z,5.05
2022-12-04T19:26:39.072Z,5.06
2022-12-04T19:29:07.440Z,5.05
2022-12-04T19:31:36.076Z,5.03
2022-12-04T19:34:03.965Z,4.97
2022-12-04T19:36:31.957Z,4.92
2022-12-04T19:38:59.707Z,4.96
2022-12-04T19:41:31.002Z,4.89
2022-12-04T19:44:00.272Z,4.90
2022-12-04T19:46:30.259Z,4.90
2022-12-04T19:49:03.691Z,4.92
2022-12-04T19:51:34.349Z,4.92
2022-12-04T19:54:01.927Z,4.91
2022-12-04T19:56:30.757Z,4.92
2022-12-04T19:59:00.210Z,4.90
2022-12-04T20:01:29.385Z,4.82
2022-12-04T20:03:56.915Z,4.75
2022-12-04T20:06:26.765Z,4.79
2022-12-04T20:08:58.925Z,4.80
2022-12-04T20:11:26.726Z,4.82
2022-12-04T20:13:55.600Z,4.80
2022-12-04T20:16:24.220Z,4.78
2022-12-04T20:18:51.000Z,4.73
2022-12-04T20:21:18.838Z,4.69
2022-12-04T20:23:49.486Z,4.69
2022-12-04T20:26:23.452Z,4.76
2022-12-04T20:28:50.368Z,4.71
2022-12-04T20:31:26.185Z,4.67
2022-12-04T20:33:54.560Z,4.62
2022-12-04T20:36:23.352Z,4.57
2022-12-04T20:38:52.303Z,4.47
2022-12-04T20:41:18.903Z,4.48
2022-12-04T20:43:47.327Z,4.42
2022-12-04T20:46:22.594Z,4.33
2022-12-04T20:48:50.959Z,4.29
2022-12-04T20:51:19.538Z,4.34
2022-12-04T20:53:47.268Z,4.37
2022-12-04T20:56:14.251Z,4.43
2022-12-04T20:58:40.975Z,4.41
2022-12-04T21:01:09.321Z,4.45
2022-12-04T21:03:35.949Z,4.43
2022-12-04T21:06:02.639Z,4.46
2022-12-04T21:08:48.054Z,4.48
2022-12-04T21:11:14.545Z,4.40
2022-12-04T21:13:59.536Z,4.24
2022-12-04T21:16:26.121Z,4.26
2022-12-04T21:18:52.622Z,4.28
2022-12-04T21:21:19.148Z,4.28
2022-12-04T21:23:45.819Z,4.21
2022-12-04T21:26:12.667Z,4.16
2022-12-04T21:28:39.417Z,4.12
2022-12-04T21:31:07.379Z,4.24
2022-12-04T21:33:34.694Z,4.18
2022-12-04T21:36:07.629Z,4.16
2022-12-04T21:38:39.130Z,4.11
2022-12-04T21:41:07.784Z,3.97
2022-12-04T21:43:35.856Z,3.99
2022-12-04T21:46:09.054Z,3.98
2022-12-04T21:48:37.186Z,3.99
2022-12-04T21:51:16.881Z,3.93
2022-12-04T21:53:54.971Z,3.95
2022-12-04T21:56:22.680Z,3.93
2022-12-04T21:58:49.692Z,3.88
2022-12-04T22:01:17.749Z,3.91
2022-12-04T22:03:44.607Z,3.98
2022-12-04T22:06:11.313Z,3.88
2022-12-04T22:08:40.652Z,3.84
2022-12-04T22:11:09.409Z,3.80
2022-12-04T22:13:41.249Z,3.81
2022-12-04T22:16:15.212Z,3.81
2022-12-04T22:18:42.048Z,3.80
2022-12-04T22:21:11.610Z,3.76
2022-12-04T22:23:38.817Z,3.73
2022-12-04T22:26:10.739Z,3.74
2022-12-04T22:28:38.633Z,3.78
2022-12-04T22:31:14.046Z,3.80
2022-12-04T22:33:41.996Z,3.69
2022-12-04T22:36:11.201Z,3.70
2022-12-04T22:38:52.573Z,3.69
2022-12-04T22:41:25.878Z,3.67
2022-12-04T22:43:52.488Z,3.68
2022-12-04T22:46:19.341Z,3.56
2022-12-04T22:48:46.586Z,3.55
2022-12-04T22:51:16.077Z,3.56
2022-12-04T22:53:48.650Z,3.50
2022-12-04T22:56:21.106Z,3.38
2022-12-04T22:58:47.945Z,3.39
2022-12-04T23:01:23.401Z,3.45
2022-12-04T23:03:50.998Z,3.61
2022-12-04T23:06:19.595Z,3.51
2022-12-04T23:08:46.617Z,3.45
2022-12-04T23:11:17.622Z,3.40
2022-12-04T23:13:49.677Z,3.44
2022-12-04T23:16:20.074Z,3.45
2022-12-04T23:18:47.468Z,3.47
2022-12-04T23:21:15.781Z,3.50
2022-12-04T23:23:44.457Z,3.42
2022-12-04T23:26:21.439Z,3.46
2022-12-04T23:28:48.304Z,3.49
2022-12-04T23:31:15.563Z,3.51
2022-12-04T23:33:42.512Z,3.49
2022-12-04T23:36:11.765Z,3.49
2022-12-04T23:38:39.894Z,3.45
2022-12-04T23:41:14.541Z,3.44
2022-12-04T23:43:42.281Z,3.38
2022-12-04T23:46:11.705Z,3.35
2022-12-04T23:48:43.536Z,3.32
2022-12-04T23:51:12.992Z,3.26
2022-12-04T23:53:39.765Z,3.23
2022-12-04T23:56:14.080Z,3.17
2022-12-04T23:58:41.453Z,3.10
